Time;durP1;ratioP1;P1;durP2;ratioP2;P2;SDS_P1;SDS_P2;PMS_P1;PMS_P2;Temp;Humidity;BMP_temperature;BMP_pressure;BME280_temperature;BME280_humidity;BME280_pressure;Samples;Min_cycle;Max_cycle;Signal;HPM_P1;HPM_P2
2023/05/22 00:01:50;;;;;;;0.10;0.10;;;;;;;21.71;44.42;100992.69;5115275;28;20054;-37
2023/05/22 00:04:20;;;;;;;0.10;0.10;;;;;;;21.71;44.47;100995.47;5115066;28;20074;-37
2023/05/22 00:06:45;;;;;;;0.10;0.10;;;;;;;21.69;44.48;100991.38;5115432;28;20075;-37
2023/05/22 00:09:11;;;;;;;0.20;0.20;;;;;;;21.72;44.59;100993.56;5096990;28;20054;-38
2023/05/22 00:11:38;;;;;;;0.10;0.10;;;;;;;21.71;44.45;100994.66;5114597;28;20336;-37
2023/05/22 00:14:04;;;;;;;0.10;0.10;;;;;;;21.69;44.53;100997.75;5096661;28;20560;-37
2023/05/22 00:16:30;;;;;;;0.10;0.10;;;;;;;21.72;44.40;100993.56;5115281;28;20066;-37
2023/05/22 00:18:56;;;;;;;0.10;0.10;;;;;;;21.72;44.38;100994.38;5115129;28;20645;-37
2023/05/22 00:21:23;;;;;;;0.10;0.10;;;;;;;21.71;44.51;100992.69;5092692;28;20044;-37
2023/05/22 00:23:49;;;;;;;0.20;0.20;;;;;;;21.73;44.55;100987.72;5094614;28;20400;-37
2023/05/22 00:26:15;;;;;;;0.10;0.10;;;;;;;21.72;44.47;100988.00;5092986;28;20388;-38
2023/05/22 00:28:41;;;;;;;0.10;0.10;;;;;;;21.71;44.57;100992.69;5097993;27;20054;-37
2023/05/22 00:31:07;;;;;;;0.10;0.10;;;;;;;21.71;44.42;100986.34;5114248;27;20039;-37
2023/05/22 00:33:33;;;;;;;0.10;0.10;;;;;;;21.71;44.39;100984.38;5114984;28;20050;-37
2023/05/22 00:35:59;;;;;;;0.10;0.10;;;;;;;21.71;44.39;100989.94;5096490;28;20528;-37
2023/05/22 00:38:29;;;;;;;0.10;0.10;;;;;;;21.73;44.60;100986.88;5114876;28;20099;-37
2023/05/22 00:40:54;;;;;;;0.15;0.15;;;;;;;21.71;44.55;100983.56;5092602;28;20130;-37
2023/05/22 00:43:20;;;;;;;0.20;0.20;;;;;;;21.72;44.45;100980.53;5092713;28;20043;-37
2023/05/22 00:45:46;;;;;;;0.10;0.10;;;;;;;21.72;44.54;100979.69;5094731;28;20560;-37
2023/05/22 00:48:12;;;;;;;0.20;0.20;;;;;;;21.72;44.45;100977.75;5098861;28;20092;-37
2023/05/22 00:50:38;;;;;;;0.20;0.20;;;;;;;21.71;44.55;100970.53;5117975;28;20089;-37
2023/05/22 00:53:04;;;;;;;0.20;0.20;;;;;;;21.71;44.44;100973.31;5117731;28;20561;-37
2023/05/22 00:55:30;;;;;;;0.10;0.10;;;;;;;21.72;44.60;100982.47;5118013;28;20058;-37
2023/05/22 00:57:56;;;;;;;0.20;0.20;;;;;;;21.71;44.63;100981.63;5118127;28;20035;-37
2023/05/22 01:00:22;;;;;;;0.10;0.10;;;;;;;21.71;44.53;100981.63;5096188;28;20407;-38
2023/05/22 01:02:48;;;;;;;0.10;0.10;;;;;;;21.70;44.54;100976.38;5097768;28;20043;-37
2023/05/22 01:05:16;;;;;;;0.10;0.10;;;;;;;21.70;44.47;100974.44;5097227;28;20048;-37
2023/05/22 01:07:44;;;;;;;0.20;0.20;;;;;;;21.72;44.42;100971.38;5097135;28;20450;-38
2023/05/22 01:10:10;;;;;;;0.20;0.20;;;;;;;21.72;44.53;100977.75;5096328;28;20047;-37
2023/05/22 01:13:01;;;;;;;0.20;0.20;;;;;;;21.72;44.47;100979.69;5097604;28;20192;-37
2023/05/22 01:15:38;;;;;;;0.10;0.10;;;;;;;21.72;44.43;100976.94;5096360;28;20044;-37
2023/05/22 01:18:18;;;;;;;0.10;0.10;;;;;;;21.72;44.47;100976.94;5097258;28;20132;-37
2023/05/22 01:20:56;;;;;;;0.10;0.10;;;;;;;21.72;44.48;100972.19;5109577;28;20044;-37
2023/05/22 01:24:02;;;;;;;0.20;0.20;;;;;;;21.72;44.39;100974.97;5099875;28;20051;-37
2023/05/22 01:26:45;;;;;;;0.20;0.20;;;;;;;21.73;44.53;100978.56;5090280;27;20043;-38
2023/05/22 01:29:17;;;;;;;0.10;0.10;;;;;;;21.74;44.52;100977.44;5118477;27;20521;-37
2023/05/22 01:31:44;;;;;;;0.10;0.10;;;;;;;21.72;44.62;100976.94;5117585;27;20049;-37
2023/05/22 01:34:10;;;;;;;0.10;0.10;;;;;;;21.72;44.60;100974.16;5099279;28;20479;-37
2023/05/22 01:36:37;;;;;;;0.20;0.20;;;;;;;21.72;44.40;100974.97;5082216;28;20340;-37
2023/05/22 01:39:05;;;;;;;0.10;0.10;;;;;;;21.72;44.47;100983.28;5117865;28;20047;-38
2023/05/22 01:41:32;;;;;;;0.20;0.20;;;;;;;21.72;44.56;100974.16;5099710;28;20079;-37
2023/05/22 01:43:59;;;;;;;0.10;0.10;;;;;;;21.72;44.47;100982.47;5099575;28;20041;-37
2023/05/22 01:46:26;;;;;;;0.10;0.10;;;;;;;21.72;44.60;100979.69;5117523;28;20181;-37
2023/05/22 01:48:52;;;;;;;0.10;0.10;;;;;;;21.73;44.46;100971.06;5099002;28;20502;-37
2023/05/22 01:51:23;;;;;;;0.10;0.10;;;;;;;21.73;44.49;100967.47;5117324;28;20096;-37
2023/05/22 01:53:57;;;;;;;0.10;0.10;;;;;;;21.73;44.36;100962.75;5117611;27;20075;-38
2023/05/22 01:56:33;;;;;;;0.20;0.20;;;;;;;21.73;44.50;100964.72;5117105;27;20066;-37
2023/05/22 01:59:05;;;;;;;0.10;0.10;;;;;;;21.73;44.58;100968.31;5117414;27;20279;-37
2023/05/22 02:01:33;;;;;;;0.10;0.10;;;;;;;21.73;44.52;100957.22;5117605;27;20039;-38
2023/05/22 02:03:59;;;;;;;0.10;0.10;;;;;;;21.73;44.53;100954.44;5117549;28;20467;-37
2023/05/22 02:06:27;;;;;;;0.10;0.10;;;;;;;21.72;44.54;100952.81;5117160;28;20403;-38
2023/05/22 02:08:53;;;;;;;0.15;0.15;;;;;;;21.72;44.53;100958.34;5117149;28;20336;-37
2023/05/22 02:11:20;;;;;;;0.13;0.13;;;;;;;21.72;44.47;100965.84;5116817;28;20476;-38
2023/05/22 02:13:46;;;;;;;0.10;0.10;;;;;;;21.72;44.51;100958.34;5117067;28;20047;-37
2023/05/22 02:16:12;;;;;;;0.10;0.10;;;;;;;21.72;44.44;100958.34;5117171;28;20094;-37
2023/05/22 02:18:40;;;;;;;0.20;0.20;;;;;;;21.71;44.80;100958.63;5116856;28;20115;-37
2023/05/22 02:21:07;;;;;;;0.10;0.10;;;;;;;21.72;44.54;100951.97;5116245;28;20049;-37
2023/05/22 02:23:33;;;;;;;0.20;0.20;;;;;;;21.71;44.65;100955.84;5117254;28;20181;-38
2023/05/22 02:25:59;;;;;;;0.10;0.10;;;;;;;21.71;44.56;100956.66;5116518;28;20047;-37
2023/05/22 02:28:24;;;;;;;0.60;0.20;;;;;;;21.72;44.60;100954.75;5116046;27;20149;-37
2023/05/22 02:30:50;;;;;;;0.10;0.10;;;;;;;21.73;44.55;100956.41;5116043;27;20066;-37
2023/05/22 02:33:17;;;;;;;0.10;0.10;;;;;;;21.72;44.43;100947.25;5116306;28;20221;-37
2023/05/22 02:35:43;;;;;;;0.10;0.10;;;;;;;21.72;44.61;100954.75;5116552;28;20080;-37
2023/05/22 02:38:09;;;;;;;0.20;0.20;;;;;;;21.72;44.67;100961.13;5116158;28;20046;-37
2023/05/22 02:40:35;;;;;;;0.10;0.10;;;;;;;21.74;44.52;100958.84;5115831;28;20043;-37
2023/05/22 02:43:01;;;;;;;0.10;0.10;;;;;;;21.71;44.51;100945.59;5116300;28;20061;-37
2023/05/22 02:45:27;;;;;;;0.10;0.10;;;;;;;21.71;44.59;100945.59;5116327;28;20043;-37
2023/05/22 02:47:52;;;;;;;0.10;0.10;;;;;;;21.72;44.63;100944.50;5116106;28;20047;-37
2023/05/22 02:50:18;;;;;;;0.20;0.20;;;;;;;21.73;44.53;100948.91;5115811;28;20058;-37
2023/05/22 02:52:44;;;;;;;0.30;0.30;;;;;;;21.74;44.55;100942.22;5115435;28;20095;-37
2023/05/22 02:55:10;;;;;;;0.10;0.10;;;;;;;21.73;44.58;100943.34;5115678;28;20050;-38
2023/05/22 02:57:35;;;;;;;0.10;0.10;;;;;;;21.74;44.58;100938.63;5097643;28;20058;-37
2023/05/22 03:00:02;;;;;;;0.10;0.10;;;;;;;21.74;44.59;100935.84;5116057;28;20411;-37
2023/05/22 03:02:28;;;;;;;0.10;0.10;;;;;;;21.72;44.46;100932.56;5115748;28;20488;-37
2023/05/22 03:04:57;;;;;;;0.10;0.10;;;;;;;21.73;44.69;100937.81;5116371;28;20384;-37
2023/05/22 03:07:25;;;;;;;0.10;0.10;;;;;;;21.72;44.56;100933.41;5097637;28;20444;-37
2023/05/22 03:09:51;;;;;;;0.10;0.10;;;;;;;21.71;44.73;100936.44;5114976;27;20070;-37
2023/05/22 03:12:17;;;;;;;0.17;0.17;;;;;;;21.73;44.62;100937.00;5115874;28;20043;-37
2023/05/22 03:14:43;;;;;;;0.20;0.20;;;;;;;21.71;44.60;100944.75;5116018;28;20071;-37
2023/05/22 03:17:09;;;;;;;0.10;0.10;;;;;;;21.73;44.53;100937.00;5097497;28;20051;-37
2023/05/22 03:19:35;;;;;;;0.10;0.10;;;;;;;21.72;44.63;100941.72;5115381;28;20051;-37
2023/05/22 03:22:00;;;;;;;0.10;0.10;;;;;;;21.73;44.67;100945.31;5115853;28;20145;-37
2023/05/22 03:24:26;;;;;;;0.10;0.10;;;;;;;21.73;44.79;100940.59;5115874;28;20419;-37
2023/05/22 03:26:52;;;;;;;0.15;0.15;;;;;;;21.73;44.60;100940.59;5115567;27;20099;-37
2023/05/22 03:29:17;;;;;;;0.13;0.13;;;;;;;21.75;44.62;100940.28;5115529;28;20047;-37
2023/05/22 03:31:43;;;;;;;0.10;0.10;;;;;;;21.72;44.67;100938.13;5115570;27;20482;-37
2023/05/22 03:34:09;;;;;;;0.20;0.20;;;;;;;21.73;44.55;100943.34;5115332;28;20055;-37
2023/05/22 03:36:35;;;;;;;0.10;0.10;;;;;;;21.73;44.63;100940.59;5115627;28;20121;-37
2023/05/22 03:39:02;;;;;;;0.10;0.10;;;;;;;21.72;44.55;100935.34;5115677;28;20043;-37
2023/05/22 03:41:27;;;;;;;0.32;0.32;;;;;;;21.74;44.65;100938.63;5097082;28;20062;-37
2023/05/22 03:43:53;;;;;;;0.10;0.10;;;;;;;21.74;44.63;100941.41;5115855;28;20047;-38
2023/05/22 03:46:18;;;;;;;0.17;0.17;;;;;;;21.74;44.69;100945.00;5116160;28;20047;-38
2023/05/22 03:48:44;;;;;;;0.20;0.20;;;;;;;21.73;44.63;100932.28;5115796;28;20043;-37
2023/05/22 03:51:10;;;;;;;0.10;0.10;;;;;;;21.75;44.53;100940.28;5115423;28;20050;-37
2023/05/22 03:53:36;;;;;;;0.13;0.13;;;;;;;21.74;44.70;100939.47;5115502;28;20051;-37
2023/05/22 03:56:01;;;;;;;0.20;0.20;;;;;;;21.74;44.67;100942.22;5115455;28;20065;-37
2023/05/22 03:58:27;;;;;;;0.20;0.20;;;;;;;21.74;44.69;100938.63;5097471;28;20479;-37
2023/05/22 04:00:54;;;;;;;0.10;0.10;;;;;;;21.73;44.71;100934.22;5114879;28;20193;-37
2023/05/22 04:03:20;;;;;;;0.10;0.10;;;;;;;21.71;44.71;100934.50;5115776;28;20368;-37
2023/05/22 04:05:46;;;;;;;0.10;0.10;;;;;;;21.74;44.94;100935.84;5080638;28;20523;-37
2023/05/22 04:08:11;;;;;;;0.10;0.10;;;;;;;21.74;44.69;100938.63;5115415;28;20271;-37
2023/05/22 04:10:39;;;;;;;0.10;0.10;;;;;;;21.75;44.57;100938.31;5115273;28;20137;-37
2023/05/22 04:13:05;;;;;;;0.17;0.17;;;;;;;21.74;44.78;100942.22;5115442;28;20080;-38
2023/05/22 04:15:32;;;;;;;0.20;0.20;;;;;;;21.75;44.76;100940.28;5115247;28;20047;-37
2023/05/22 04:17:59;;;;;;;0.20;0.20;;;;;;;21.73;44.75;100937.00;5115565;28;20414;-37
2023/05/22 04:20:25;;;;;;;0.15;0.15;;;;;;;21.73;44.60;100948.09;5092847;28;20051;-37
2023/05/22 04:22:53;;;;;;;0.10;0.10;;;;;;;21.75;44.60;100946.63;5097934;28;20533;-37
2023/05/22 04:25:19;;;;;;;0.17;0.17;;;;;;;21.75;44.61;100954.97;5096629;27;20235;-37
2023/05/22 04:27:46;;;;;;;0.10;0.10;;;;;;;21.75;44.70;100952.19;5098473;28;20040;-38
2023/05/22 04:30:15;;;;;;;0.20;0.20;;;;;;;21.77;44.66;100949.13;5105415;28;20047;-37
2023/05/22 04:32:42;;;;;;;0.10;0.10;;;;;;;21.76;44.68;100956.63;5083706;28;20432;-37
2023/05/22 04:35:08;;;;;;;0.10;0.10;;;;;;;21.78;44.65;100967.41;5118508;28;20096;-37
2023/05/22 04:37:35;;;;;;;0.10;0.10;;;;;;;21.79;44.16;100960.72;5095716;28;20246;-38
2023/05/22 04:40:06;;;;;;;0.20;0.20;;;;;;;21.83;44.32;100972.06;5081709;28;20043;-37
2023/05/22 04:42:33;;;;;;;0.10;0.10;;;;;;;21.84;44.35;100968.97;5097990;28;20055;-37
2023/05/22 04:44:59;;;;;;;0.10;0.10;;;;;;;21.84;44.45;100966.22;5097682;28;20052;-38
2023/05/22 04:47:27;;;;;;;0.10;0.10;;;;;;;21.83;44.45;100975.66;5097936;28;20075;-37
2023/05/22 04:49:53;;;;;;;0.10;0.10;;;;;;;21.79;44.50;100972.66;5100156;28;20434;-37
2023/05/22 04:52:20;;;;;;;0.10;0.10;;;;;;;21.80;44.56;100967.91;5110883;28;20518;-37
2023/05/22 04:54:46;;;;;;;0.10;0.10;;;;;;;21.81;44.85;100966.81;5098821;28;20051;-37
2023/05/22 04:57:12;;;;;;;0.10;0.10;;;;;;;21.81;45.02;100968.78;5109342;28;20074;-37
2023/05/22 04:59:38;;;;;;;0.20;0.20;;;;;;;21.79;45.03;100967.09;5113534;28;20053;-37
2023/05/22 05:02:04;;;;;;;0.10;0.10;;;;;;;21.83;45.03;100964.56;5113797;28;20035;-37
2023/05/22 05:04:30;;;;;;;0.10;0.10;;;;;;;21.84;45.25;100959.84;5110813;27;20047;-37
2023/05/22 05:06:56;;;;;;;0.10;0.10;;;;;;;21.83;45.30;100959.03;5124643;27;20086;-37
2023/05/22 05:09:22;;;;;;;0.10;0.10;;;;;;;21.83;45.38;100967.34;5115773;28;20043;-37
2023/05/22 05:11:49;;;;;;;0.20;0.20;;;;;;;21.84;45.30;100977.28;5114668;28;20039;-37
2023/05/22 05:14:15;;;;;;;0.20;0.20;;;;;;;21.83;45.29;100975.66;5096473;28;20039;-37
2023/05/22 05:16:41;;;;;;;0.10;0.10;;;;;;;21.85;45.44;100972.56;5117092;27;20043;-37
2023/05/22 05:19:07;;;;;;;0.10;0.10;;;;;;;21.86;45.50;100963.97;5114541;28;20047;-37
2023/05/22 05:21:33;;;;;;;0.20;0.20;;;;;;;21.85;45.69;100981.75;5116300;28;20039;-37
2023/05/22 05:23:59;;;;;;;0.20;0.20;;;;;;;21.88;45.52;100969.22;5113354;28;20040;-38
2023/05/22 05:26:25;;;;;;;0.20;0.20;;;;;;;21.86;45.84;100966.75;5110313;27;20043;-37
2023/05/22 05:28:51;;;;;;;0.10;0.10;;;;;;;21.87;46.05;100968.38;5112878;27;20048;-37
2023/05/22 05:31:19;;;;;;;0.20;0.20;;;;;;;21.88;45.76;100963.66;5112774;27;20045;-38
2023/05/22 05:33:44;;;;;;;0.10;0.10;;;;;;;21.87;46.21;100964.81;5111129;28;20039;-37
2023/05/22 05:36:10;;;;;;;0.10;0.10;;;;;;;21.89;45.90;100974.47;5112033;28;20050;-38
2023/05/22 05:38:36;;;;;;;0.20;0.20;;;;;;;21.89;46.03;100979.16;5100689;28;20671;-37
2023/05/22 05:41:02;;;;;;;0.10;0.10;;;;;;;21.90;46.14;100980.84;5097733;28;20047;-37
2023/05/22 05:43:27;;;;;;;0.10;0.10;;;;;;;21.90;46.31;100973.34;5114729;28;20039;-38
2023/05/22 05:45:53;;;;;;;0.10;0.10;;;;;;;21.88;46.57;100980.31;5112395;28;20058;-38
2023/05/22 05:48:19;;;;;;;0.20;0.20;;;;;;;21.89;46.31;100977.25;5111499;27;20096;-37
2023/05/22 05:50:44;;;;;;;0.20;0.20;;;;;;;21.89;46.46;100984.72;5112440;27;20061;-38
2023/05/22 05:53:10;;;;;;;0.20;0.20;;;;;;;21.90;46.99;100986.38;5109354;28;20043;-38
2023/05/22 05:55:36;;;;;;;0.20;0.20;;;;;;;21.90;46.89;100987.22;5107116;27;20051;-37
2023/05/22 05:58:02;;;;;;;0.20;0.20;;;;;;;21.92;47.36;100989.69;5103173;27;20043;-38
2023/05/22 06:00:27;;;;;;;0.10;0.10;;;;;;;21.92;47.36;100996.03;5097344;28;20111;-37
2023/05/22 06:02:53;;;;;;;0.10;0.10;;;;;;;21.95;47.73;100995.47;5098022;28;20035;-38
2023/05/22 06:05:20;;;;;;;0.20;0.20;;;;;;;21.95;48.06;100995.47;5095866;27;20054;-37
2023/05/22 06:07:47;;;;;;;0.20;0.20;;;;;;;21.95;48.06;100994.63;5092780;27;20054;-37
2023/05/22 06:10:13;;;;;;;0.10;0.10;;;;;;;21.94;48.26;100996.59;5079624;28;20430;-37
2023/05/22 06:12:39;;;;;;;0.20;0.20;;;;;;;21.95;48.36;101000.19;5104612;28;20530;-37
2023/05/22 06:15:06;;;;;;;0.10;0.10;;;;;;;21.93;48.53;101000.47;5113756;28;20406;-37
2023/05/22 06:17:32;;;;;;;0.20;0.20;;;;;;;21.95;47.90;101008.50;5087795;28;20043;-37
2023/05/22 06:19:58;;;;;;;0.20;0.20;;;;;;;21.96;47.97;101010.13;5111409;28;20133;-37
2023/05/22 06:22:25;;;;;;;0.20;0.20;;;;;;;21.95;48.06;101006.56;5107229;27;20104;-37
2023/05/22 06:24:53;;;;;;;0.15;0.15;;;;;;;21.95;48.28;101008.50;5089752;28;20430;-37
2023/05/22 06:27:21;;;;;;;0.10;0.10;;;;;;;21.94;48.04;101007.69;5110114;27;20277;-37
2023/05/22 06:29:49;;;;;;;0.10;0.10;;;;;;;21.95;48.68;101014.03;5111530;28;20406;-37
2023/05/22 06:32:15;;;;;;;0.20;0.20;;;;;;;21.95;48.90;101011.28;5112928;27;20043;-38
2023/05/22 06:34:43;;;;;;;0.10;0.10;;;;;;;21.95;48.75;101014.03;5095531;28;20195;-38
2023/05/22 06:37:09;;;;;;;0.20;0.20;;;;;;;21.94;48.50;101013.22;5087273;28;20047;-38
2023/05/22 06:39:35;;;;;;;0.10;0.10;;;;;;;21.97;48.39;101014.56;5094067;28;20092;-37
2023/05/22 06:42:01;;;;;;;0.10;0.10;;;;;;;21.97;48.38;101017.34;5097418;27;20039;-37
2023/05/22 06:44:26;;;;;;;0.10;0.10;;;;;;;21.97;48.38;101020.09;5117335;27;20478;-38
2023/05/22 06:46:52;;;;;;;0.20;0.20;;;;;;;21.97;48.47;101022.88;5108113;27;20053;-37
2023/05/22 06:49:18;;;;;;;0.20;0.20;;;;;;;21.97;48.55;101032.00;5095894;28;20111;-37
2023/05/22 06:51:45;;;;;;;0.20;0.20;;;;;;;21.98;48.54;101030.91;5101077;28;20039;-38
2023/05/22 06:54:12;;;;;;;0.10;0.10;;;;;;;21.98;49.08;101041.19;5093309;28;20543;-37
2023/05/22 06:56:39;;;;;;;0.22;0.22;;;;;;;21.99;48.83;101031.75;5078990;28;20108;-37
2023/05/22 06:59:05;;;;;;;0.10;0.10;;;;;;;21.98;48.94;101030.91;5093201;27;20083;-38
2023/05/22 07:01:32;;;;;;;0.20;0.20;;;;;;;21.40;53.97;101039.34;5086764;27;20047;-38
2023/05/22 07:04:00;;;;;;;0.38;0.38;;;;;;;21.23;54.79;101041.72;5083289;28;20074;-42
2023/05/22 07:06:26;;;;;;;0.10;0.10;;;;;;;21.66;52.93;101050.16;5065768;27;20448;-38
2023/05/22 07:08:52;;;;;;;0.10;0.10;;;;;;;21.85;52.24;101047.44;5065542;28;20211;-37
2023/05/22 07:11:18;;;;;;;0.15;0.15;;;;;;;21.91;52.32;101049.84;5066630;27;20051;-38
2023/05/22 07:13:44;;;;;;;0.10;0.10;;;;;;;21.91;52.33;101051.81;5087943;27;20051;-37
2023/05/22 07:16:10;;;;;;;0.10;0.10;;;;;;;21.92;52.11;101048.72;5070593;28;20652;-37
2023/05/22 07:18:35;;;;;;;0.20;0.20;;;;;;;21.96;51.88;101051.72;5104089;27;20054;-37
2023/05/22 07:21:01;;;;;;;0.20;0.20;;;;;;;21.97;52.07;101056.16;5096817;27;20465;-38
2023/05/22 07:23:27;;;;;;;0.10;0.10;;;;;;;21.97;52.39;101056.16;5086954;28;20232;-38
2023/05/22 07:25:53;;;;;;;0.15;0.15;;;;;;;21.97;52.34;101064.47;5100886;27;20043;-38
2023/05/22 07:28:19;;;;;;;0.25;0.25;;;;;;;21.99;51.92;101060.28;5100748;27;20058;-38
2023/05/22 07:30:44;;;;;;;0.20;0.20;;;;;;;21.96;52.23;101063.66;5104018;27;20465;-37
2023/05/22 07:33:10;;;;;;;0.20;0.20;;;;;;;21.96;52.20;101052.56;5104209;27;20384;-38
2023/05/22 07:35:36;;;;;;;0.13;0.13;;;;;;;21.96;52.01;101068.38;5100042;27;20051;-38
2023/05/22 07:38:02;;;;;;;0.20;0.20;;;;;;;21.97;51.97;101073.63;5103588;27;20415;-38
2023/05/22 07:40:28;;;;;;;0.10;0.10;;;;;;;21.98;51.66;101068.91;5109481;27;20443;-38
2023/05/22 07:42:54;;;;;;;0.20;0.20;;;;;;;21.96;51.95;101071.97;5097638;27;20064;-38
2023/05/22 07:45:20;;;;;;;0.20;0.20;;;;;;;21.96;51.88;101069.19;5096118;27;20071;-37
2023/05/22 07:47:45;;;;;;;0.20;0.20;;;;;;;21.96;51.83;101060.06;5106772;27;20047;-38
2023/05/22 07:50:11;;;;;;;0.10;0.10;;;;;;;21.96;51.73;101065.59;5106953;27;20180;-37
2023/05/22 07:52:37;;;;;;;0.52;0.45;;;;;;;21.92;52.72;101064.53;5109675;27;20042;-37
2023/05/22 07:55:03;;;;;;;0.20;0.20;;;;;;;21.84;53.95;101071.56;5102563;27;20096;-37
2023/05/22 07:57:28;;;;;;;0.20;0.20;;;;;;;21.93;53.19;101074.50;5113731;27;20035;-37
2023/05/22 07:59:55;;;;;;;0.20;0.20;;;;;;;21.95;52.86;101077.81;5109814;27;20043;-37
2023/05/22 08:02:21;;;;;;;0.10;0.10;;;;;;;21.95;52.48;101073.09;5100970;28;20043;-38
2023/05/22 08:04:47;;;;;;;0.13;0.13;;;;;;;21.98;52.35;101080.00;5099593;27;20039;-38
2023/05/22 08:07:13;;;;;;;0.20;0.20;;;;;;;22.00;52.53;101083.31;5097561;27;20083;-38
2023/05/22 08:09:38;;;;;;;0.20;0.20;;;;;;;22.00;52.35;101088.84;5102323;28;20324;-37
2023/05/22 08:12:05;;;;;;;0.10;0.10;;;;;;;22.00;52.82;101088.84;5098434;28;20100;-38
2023/05/22 08:14:33;;;;;;;0.15;0.15;;;;;;;22.02;52.40;101089.34;5104085;27;20047;-37
2023/05/22 08:16:59;;;;;;;0.20;0.20;;;;;;;21.74;56.19;101091.91;5099975;27;20103;-37
2023/05/22 08:19:25;;;;;;;0.10;0.10;;;;;;;21.92;55.09;101084.78;5105958;27;20058;-38
2023/05/22 08:21:56;;;;;;;0.20;0.20;;;;;;;21.99;54.66;101088.03;5098390;27;20051;-38
2023/05/22 08:24:28;;;;;;;0.20;0.20;;;;;;;22.02;54.38;101090.22;5108316;27;20509;-38
2023/05/22 08:26:55;;;;;;;0.20;0.20;;;;;;;22.01;54.38;101085.75;5101746;28;20050;-38
2023/05/22 08:29:21;;;;;;;0.10;0.10;;;;;;;22.02;54.17;101083.81;5080713;28;20043;-38
2023/05/22 08:31:47;;;;;;;0.10;0.10;;;;;;;22.02;53.92;101090.22;5095716;27;20146;-37
2023/05/22 08:34:12;;;;;;;0.20;0.20;;;;;;;22.03;53.89;101086.31;5093481;27;20039;-38
2023/05/22 08:36:38;;;;;;;0.20;0.20;;;;;;;22.03;53.69;101089.09;5093154;28;20213;-37
2023/05/22 08:39:06;;;;;;;0.20;0.20;;;;;;;22.05;53.60;101083.22;5089843;27;20047;-38
2023/05/22 08:41:32;;;;;;;0.10;0.10;;;;;;;22.02;53.86;101087.44;5092626;27;20865;-38
2023/05/22 08:43:57;;;;;;;0.20;0.20;;;;;;;22.02;53.37;101084.66;5107062;27;21017;-37
2023/05/22 08:46:27;;;;;;;0.20;0.20;;;;;;;22.01;53.46;101087.72;5108732;27;20047;-37
2023/05/22 08:48:55;;;;;;;0.20;0.20;;;;;;;22.01;53.44;101090.50;5083355;28;20546;-37
2023/05/22 08:51:26;;;;;;;0.20;0.20;;;;;;;22.01;53.45;101085.75;5100353;27;20097;-37
2023/05/22 08:53:55;;;;;;;0.20;0.20;;;;;;;22.02;53.29;101089.34;5100644;27;20717;-37
2023/05/22 08:56:21;;;;;;;0.28;0.28;;;;;;;22.03;53.39;101097.41;5104856;28;20039;-37
2023/05/22 08:58:48;;;;;;;0.15;0.15;;;;;;;22.02;53.60;101093.00;5101521;28;20046;-37
2023/05/22 09:01:15;;;;;;;0.20;0.20;;;;;;;21.74;56.78;101097.47;5083504;28;20457;-38
2023/05/22 09:03:41;;;;;;;0.40;0.40;;;;;;;21.48;57.19;101105.22;5100538;27;20063;-37
2023/05/22 09:06:09;;;;;;;0.20;0.20;;;;;;;21.73;56.24;101109.66;5110109;27;20062;-38
2023/05/22 09:08:35;;;;;;;0.20;0.20;;;;;;;21.90;55.38;101105.63;5107655;27;20047;-37
2023/05/22 09:11:01;;;;;;;0.20;0.20;;;;;;;21.93;54.96;101105.00;5098456;27;20063;-38
2023/05/22 09:13:28;;;;;;;0.20;0.20;;;;;;;21.95;54.61;101109.16;5091167;27;20061;-37
2023/05/22 09:15:58;;;;;;;0.28;0.28;;;;;;;21.34;58.15;101101.47;5108199;27;20051;-38
2023/05/22 09:18:26;;;;;;;0.20;0.20;;;;;;;21.20;58.80;101109.59;5085946;28;20238;-42
2023/05/22 09:23:33;;;;;;;0.10;0.10;;;;;;;21.69;56.32;101111.38;5099532;22;20056;-49
2023/05/22 09:26:00;;;;;;;0.20;0.20;;;;;;;21.82;55.57;101111.81;5067400;28;20420;-49
2023/05/22 09:28:31;;;;;;;0.20;0.20;;;;;;;21.89;55.10;101115.03;5045021;28;20037;-47
2023/05/22 09:30:56;;;;;;;0.20;0.20;;;;;;;21.91;55.07;101115.56;5061517;28;20108;-47
2023/05/22 09:33:23;;;;;;;0.20;0.20;;;;;;;21.95;54.40;101113.88;5052828;28;20043;-48
2023/05/22 09:35:52;;;;;;;0.20;0.20;;;;;;;21.95;54.36;101116.63;5050006;28;20122;-50
2023/05/22 09:38:18;;;;;;;0.20;0.20;;;;;;;21.94;54.25;101113.03;5047842;28;20153;-49
2023/05/22 09:40:44;;;;;;;0.20;0.20;;;;;;;21.96;54.13;101115.50;5050057;28;20143;-48
2023/05/22 09:43:10;;;;;;;0.20;0.20;;;;;;;21.98;53.99;101116.06;5048001;28;20404;-48
2023/05/22 09:45:37;;;;;;;0.20;0.20;;;;;;;21.97;54.00;101122.72;5051465;28;20087;-48
2023/05/22 09:48:04;;;;;;;0.20;0.20;;;;;;;21.96;53.39;101124.66;5056148;28;20043;-48
2023/05/22 09:50:31;;;;;;;0.20;0.20;;;;;;;21.95;53.78;101120.25;5062577;28;20255;-49
2023/05/22 09:53:00;;;;;;;0.20;0.20;;;;;;;21.98;53.72;101118.84;5062077;28;20517;-49
2023/05/22 09:55:26;;;;;;;0.20;0.20;;;;;;;21.99;53.73;101120.47;5058866;28;20489;-48
2023/05/22 09:57:52;;;;;;;0.10;0.10;;;;;;;21.99;53.55;101115.75;5058115;28;20048;-50
2023/05/22 10:00:19;;;;;;;0.20;0.20;;;;;;;22.00;53.74;101124.91;5066353;28;20048;-48
2023/05/22 10:02:46;;;;;;;0.20;0.20;;;;;;;21.99;53.67;101121.31;5063889;28;20040;-48
2023/05/22 10:05:20;;;;;;;0.17;0.17;;;;;;;21.99;53.78;101120.47;5064460;28;20062;-49
2023/05/22 10:07:49;;;;;;;0.20;0.20;;;;;;;21.99;53.59;101121.31;5062038;28;20056;-48
2023/05/22 10:10:17;;;;;;;0.10;0.10;;;;;;;22.00;53.43;101122.13;5057882;28;20513;-48
2023/05/22 10:12:49;;;;;;;0.17;0.17;;;;;;;22.01;53.41;101123.78;5074461;28;20071;-48
2023/05/22 10:15:16;;;;;;;0.10;0.10;;;;;;;22.00;53.53;101127.66;5066661;28;20525;-49
2023/05/22 10:17:43;;;;;;;0.20;0.20;;;;;;;22.00;53.36;101122.94;5071205;28;20232;-48
2023/05/22 10:20:09;;;;;;;0.10;0.10;;;;;;;21.99;53.21;101123.25;5078075;28;20060;-49
2023/05/22 10:22:37;;;;;;;0.20;0.20;;;;;;;22.00;53.14;101120.16;5062918;28;20590;-49
2023/05/22 10:25:03;;;;;;;0.20;0.20;;;;;;;22.00;53.26;101119.34;5074180;28;20392;-48
2023/05/22 10:27:29;;;;;;;0.17;0.17;;;;;;;22.00;53.30;101122.13;5067863;28;20668;-49
2023/05/22 10:30:02;;;;;;;0.20;0.20;;;;;;;21.93;54.51;101116.91;5060788;28;20056;-49
2023/05/22 10:32:36;;;;;;;0.20;0.20;;;;;;;21.97;54.17;101120.75;5060176;28;20055;-48
2023/05/22 10:35:10;;;;;;;0.43;0.40;;;;;;;21.99;53.65;101126.03;5065340;28;20052;-48
2023/05/22 10:37:44;;;;;;;0.20;0.20;;;;;;;22.00;53.56;101119.34;5051575;28;20048;-49
2023/05/22 10:40:12;;;;;;;0.20;0.20;;;;;;;22.08;53.38;101120.66;5031803;28;20896;-48
2023/05/22 10:42:38;;;;;;;0.10;0.10;;;;;;;22.07;53.29;101119.00;5051363;28;20143;-49
2023/05/22 10:45:06;;;;;;;0.15;0.15;;;;;;;22.06;52.78;101109.84;5057137;28;20051;-52
2023/05/22 10:47:32;;;;;;;;;;;;;;;22.05;53.15;101108.19;5056372;28;20086;-51
2023/05/22 10:50:13;;;;;;;0.20;0.20;;;;;;;22.01;53.17;101109.91;5064195;28;19924;-51
2023/05/22 10:52:39;;;;;;;0.20;0.20;;;;;;;22.00;53.53;101106.31;5059001;28;20047;-51
2023/05/22 10:55:07;;;;;;;0.10;0.10;;;;;;;22.02;53.52;101106.84;5060696;28;20062;-51
2023/05/22 10:57:33;;;;;;;0.20;0.20;;;;;;;22.01;52.66;101101.59;5060846;28;20051;-47
2023/05/22 11:00:09;;;;;;;0.20;0.20;;;;;;;22.00;52.81;101106.31;5060188;28;20079;-49
2023/05/22 11:02:43;;;;;;;0.20;0.20;;;;;;;22.01;52.85;101096.03;5055964;28;20278;-48
2023/05/22 11:11:10;;;;;;;0.30;0.30;;;;;;;22.03;52.52;101093.81;5147133;27;20128;-50
2023/05/22 11:13:35;;;;;;;0.30;0.30;;;;;;;21.99;52.77;101093.56;5108733;27;20054;-50
2023/05/22 11:16:04;;;;;;;0.20;0.20;;;;;;;22.00;52.84;101091.63;5125736;27;20058;-50
2023/05/22 11:18:30;;;;;;;0.13;0.13;;;;;;;21.98;52.88;101091.09;5103797;27;20034;-52
2023/05/22 11:20:58;;;;;;;0.20;0.20;;;;;;;21.99;52.93;101087.19;5120988;27;20204;-52
2023/05/22 11:23:24;;;;;;;0.20;0.20;;;;;;;21.98;52.82;101091.09;5082624;28;20081;-51
2023/05/22 11:25:49;;;;;;;0.10;0.10;;;;;;;22.01;52.46;101090.50;5085476;27;20563;-51
2023/05/22 11:28:15;;;;;;;0.20;0.20;;;;;;;22.00;52.51;101088.84;5096850;27;20055;-50
2023/05/22 11:30:41;;;;;;;0.20;0.20;;;;;;;22.03;52.77;101089.09;5084480;27;20577;-51
2023/05/22 11:33:07;;;;;;;0.20;0.20;;;;;;;22.02;52.91;101083.81;5088916;27;20048;-52